METAR Data
IDs: Format: Raw Decoded Include TAF

Data at: 1745 UTC 25 Mar 2019

KMNZ 251735Z AUTO 05010G15KT 10SM CLR 22/09 A3022 RMK AO2 T02220088
KMNZ 251715Z AUTO 06009KT 10SM CLR 21/08 A3022 RMK AO2 T02130083
KMNZ 251655Z AUTO 04009KT 10SM CLR 21/09 A3022 RMK AO2 T02140093
KMNZ 251635Z AUTO 05007KT 10SM CLR 21/10 A3022 RMK AO2 T02050097
KMNZ 251615Z AUTO 05009KT 10SM SCT045 19/10 A3022 RMK AO2 T01920099
KMNZ 251555Z AUTO 04009KT 10SM OVC043 18/10 A3022 RMK AO2 T01830098
KMNZ 251535Z AUTO 03009KT 10SM OVC041 18/10 A3021 RMK AO2 T01810099
KMNZ 251515Z AUTO 04008KT 10SM SCT035 BKN041 18/10 A3020 RMK AO2 T01810098
KMNZ 251455Z AUTO 04007KT 10SM BKN036 17/10 A3019 RMK AO2 T01680101
KMNZ 251435Z AUTO 04008KT 10SM SCT035 OVC041 17/10 A3018 RMK AO2 T01660100
KMNZ 251415Z AUTO 03010KT 10SM SCT033 OVC043 16/10 A3017 RMK AO2 T01590098
KMNZ 251355Z AUTO 04007KT 10SM SCT041 16/10 A3017 RMK AO2 T01560099
KMNZ 251335Z AUTO 03009KT 10SM CLR 15/10 A3016 RMK AO2 T01500101
KMNZ 251315Z AUTO 02011G15KT 10SM BKN027 15/11 A3015 RMK AO2 T01450110
KMNZ 251255Z AUTO 02011KT 10SM BKN027 15/12 A3014 RMK AO2 T01470118
KMNZ 251235Z AUTO 01007KT 10SM BKN029 14/13 A3014 RMK AO2 LTG DSNT E T01420126
KMNZ 251215Z AUTO 36006KT 10SM BKN029 14/13 A3013 RMK AO2 T01400130
KMNZ 251155Z AUTO 36005KT 10SM SCT029 SCT034 14/13 A3012 RMK AO2 T01410127 10187 20136
KMNZ 251135Z AUTO 02006KT 10SM SCT029 SCT034 14/13 A3011 RMK AO2 T01430130
KMNZ 251115Z AUTO 02008KT 10SM BKN029 15/14 A3011 RMK AO2 T01500136
KMNZ 251055Z AUTO 02007KT 10SM CLR 14/14 A3008 RMK AO2 T01380138
KMNZ 251035Z AUTO 02006KT 10SM CLR 15/15 A3007 RMK AO2 T01480148
KMNZ 251015Z AUTO 05003KT 10SM CLR 15/15 A3006 RMK AO2 T01480145
KMNZ 250955Z AUTO 00000KT 10SM SCT037 16/16 A3005 RMK AO2 T01570156
KMNZ 250935Z AUTO 32004KT 10SM SCT037 16/16 A3005 RMK AO2 T01620155
KMNZ 250915Z AUTO 00000KT 10SM SCT039 17/15 A3005 RMK AO2 T01730154
KMNZ 250855Z AUTO 00000KT 10SM OVC039 18/15 A3004 RMK AO2 T01840150
KMNZ 250835Z AUTO 00000KT 10SM OVC039 19/15 A3005 RMK AO2 T01850152
KMNZ 250815Z AUTO 00000KT 10SM OVC039 18/16 A3006 RMK AO2 T01840155
KMNZ 250755Z AUTO 36003KT 10SM OVC039 18/16 A3006 RMK AO2 LTG DSNT E T01820156
KMNZ 250735Z AUTO 32005KT 10SM BKN041 19/16 A3006 RMK AO2 T01850155
KMNZ 250715Z AUTO 31005KT 10SM CLR 18/15 A3006 RMK AO2 T01840152
KMNZ 250655Z AUTO 00000KT 10SM CLR 18/15 A3006 RMK AO2 T01750146
KMNZ 250635Z AUTO 30003KT 10SM CLR 18/15 A3006 RMK AO2 T01810150
KMNZ 250615Z AUTO 00000KT 10SM CLR 18/15 A3006 RMK AO2 T01800150
KMNZ 250555Z AUTO 36005KT 10SM CLR 18/15 A3005 RMK AO2 LTG DSNT NE T01760149 10260 20170 402750142
KMNZ 250535Z AUTO 01004KT 10SM CLR 18/15 A3004 RMK AO2 T01800148
KMNZ 250515Z AUTO 00000KT 10SM CLR 18/15 A3004 RMK AO2 T01750150
KMNZ 250455Z AUTO 18008KT 10SM CLR 18/15 A3002 RMK AO2 T01810151
KMNZ 250435Z AUTO 18008KT 10SM CLR 19/15 A3002 RMK AO2 T01850150
KMNZ 250415Z AUTO 18008KT 10SM CLR 19/15 A3002 RMK AO2 T01880153
KMNZ 250355Z AUTO 19009KT 10SM CLR 18/15 A3003 RMK AO2 T01820150
KMNZ 250335Z AUTO 18008KT 10SM CLR 18/15 A3003 RMK AO2 T01840150
KMNZ 250315Z AUTO 19007KT 10SM CLR 19/15 A3003 RMK AO2 T01860151
KMNZ 250255Z AUTO 18007KT 10SM CLR 18/15 A3002 RMK AO2 T01840146
KMNZ 250235Z AUTO 18006KT 10SM CLR 20/15 A3002 RMK AO2 T01980150
KMNZ 250215Z AUTO 18006KT 10SM CLR 20/15 A3001 RMK AO2 T01970151
KMNZ 250155Z AUTO 18006KT 10SM CLR 21/15 A3000 RMK AO2 T02050152
KMNZ 250135Z AUTO 17006KT 10SM CLR 21/16 A2999 RMK AO2 T02070155
KMNZ 250115Z AUTO 17005KT 10SM CLR 21/16 A2999 RMK AO2 T02140157
KMNZ 250055Z AUTO 17007KT 10SM CLR 22/16 A2999 RMK AO2 T02220159
KMNZ 250035Z AUTO 17008KT 10SM CLR 24/16 A2999 RMK AO2 T02390160
KMNZ 250015Z AUTO 19007KT 10SM CLR 25/15 A2999 RMK AO2 T02520152
KMNZ 242355Z AUTO 19008KT 10SM CLR 26/15 A2998 RMK AO2 T02610150 10275 20249
KMNZ 242335Z AUTO 19009KT 10SM CLR 27/15 A2998 RMK AO2 T02670153
KMNZ 242315Z AUTO 20009KT 10SM CLR 27/15 A2998 RMK AO2 T02700150
KMNZ 242255Z AUTO 22009KT 10SM CLR 28/15 A2998 RMK AO2 T02750151
KMNZ 242235Z AUTO 23009KT 10SM CLR 27/15 A2999 RMK AO2 T02730147
KMNZ 242215Z AUTO 23012G15KT 10SM CLR 27/15 A2999 RMK AO2 T02720148
KMNZ 242155Z AUTO 23011KT 10SM CLR 27/15 A3000 RMK AO2 T02730149
KMNZ 242135Z AUTO 23010KT 10SM CLR 27/15 A3000 RMK AO2 T02710154
KMNZ 242115Z AUTO 22011KT 10SM CLR 27/15 A3001 RMK AO2 T02690152
KMNZ 242055Z AUTO 20010G14KT 10SM CLR 27/15 A3001 RMK AO2 T02680154
KMNZ 242035Z AUTO 24011G18KT 10SM CLR 27/15 A3002 RMK AO2 T02660152
KMNZ 242015Z AUTO 22011KT 10SM SCT037 26/16 A3002 RMK AO2 T02640155
KMNZ 241955Z AUTO 24012KT 10SM SCT035 26/16 A3003 RMK AO2 T02580155
KMNZ 241935Z AUTO 24015KT 10SM BKN037 26/16 A3004 RMK AO2 T02590157
KMNZ 241915Z AUTO 24012G21KT 10SM BKN037 26/16 A3005 RMK AO2 T02590159
KMNZ 241855Z AUTO 23014G20KT 10SM BKN035 25/16 A3005 RMK AO2 T02510160
KMNZ 241835Z AUTO 22013G17KT 10SM SCT033 26/16 A3006 RMK AO2 T02590158
KMNZ 241815Z AUTO 22013G17KT 10SM BKN033 25/16 A3006 RMK AO2 T02510159
KMNZ 241755Z AUTO 24013KT 10SM SCT031 25/16 A3007 RMK AO2 T02540163 10254 20142
KMNZ 241735Z AUTO 23015G18KT 10SM SCT029 24/16 A3007 RMK AO2 T02440162
KMNZ 241715Z AUTO 23016KT 10SM SCT029 25/16 A3008 RMK AO2 T02450161
KMNZ 241655Z AUTO 23012KT 10SM BKN025 24/16 A3008 RMK AO2 T02400163
KMNZ 241635Z AUTO 21012KT 10SM BKN025 23/16 A3009 RMK AO2 T02340162
KMNZ 241615Z AUTO 20013KT 10SM SCT023 23/16 A3008 RMK AO2 T02330164
KMNZ 241555Z AUTO 23015KT 10SM BKN019 23/16 A3009 RMK AO2 T02250163
KMNZ 241535Z AUTO 21012KT 10SM BKN017 23/18 A3009 RMK AO2 T02270175
KMNZ 241515Z AUTO 22014KT 10SM BKN015 21/18 A3009 RMK AO2 T02140181
KMNZ 241455Z AUTO 21012KT 10SM CLR 21/18 A3009 RMK AO2 T02080183
KMNZ 241435Z AUTO 19012KT 10SM CLR 20/18 A3008 RMK AO2 T01960182
KMNZ 241415Z AUTO 19009KT 10SM CLR 18/18 A3008 RMK AO2 T01820182
KMNZ 241355Z AUTO 18008KT 10SM CLR 18/18 A3007 RMK AO2 T01750175
KMNZ 241335Z AUTO 19006KT 10SM CLR 17/17 A3007 RMK AO2 T01650165
KMNZ 241315Z AUTO 19007KT 7SM CLR 16/16 A3007 RMK AO2 T01570157
KMNZ 241255Z AUTO 18007KT 5SM BR CLR 15/15 A3006 RMK AO2 T01490149
KMNZ 241235Z AUTO 19006KT 5SM BR CLR 14/14 A3006 RMK AO2 T01420142
KMNZ 241215Z AUTO 19006KT 7SM CLR 15/15 A3005 RMK AO2 T01460146
KMNZ 241155Z AUTO 19007KT 10SM CLR 15/15 A3005 RMK AO2 T01480148 10183 20147
KMNZ 241135Z AUTO 20006KT 10SM CLR 15/15 A3004 RMK AO2 T01510151
KMNZ 241115Z AUTO 19007KT 10SM CLR 16/16 A3004 RMK AO2 T01560156
KMNZ 241055Z AUTO 19008KT 10SM CLR 16/16 A3003 RMK AO2 T01610161
KMNZ 241035Z AUTO 19009KT 10SM CLR 16/16 A3003 RMK AO2 T01620162
KMNZ 241015Z AUTO 18008KT 10SM CLR 16/16 A3003 RMK AO2 T01630163
KMNZ 240955Z AUTO 18009KT 10SM SCT027 17/17 A3003 RMK AO2 T01660166
KMNZ 240935Z AUTO 18010KT 10SM BKN027 17/17 A3003 RMK AO2 T01700170
KMNZ 240915Z AUTO 19009KT 10SM SCT019 OVC027 17/17 A3004 RMK AO2 T01730172
KMNZ 240855Z AUTO 19008KT 10SM BKN027 17/17 A3004 RMK AO2 T01710167
KMNZ 240835Z AUTO 19009KT 10SM BKN029 17/17 A3004 RMK AO2 T01720167
KMNZ 240815Z AUTO 19009KT 10SM BKN029 17/17 A3005 RMK AO2 T01730166
KMNZ 240755Z AUTO 20010KT 10SM BKN029 18/17 A3005 RMK AO2 T01750165
KMNZ 240735Z AUTO 19011KT 10SM SCT027 18/16 A3005 RMK AO2 T01750158
KMNZ 240715Z AUTO 20012KT 10SM SCT025 18/16 A3005 RMK AO2 T01770155
KMNZ 240655Z AUTO 19015KT 10SM OVC025 18/16 A3005 RMK AO2 T01800157
KMNZ 240635Z AUTO 19013KT 10SM SCT016 OVC023 18/16 A3005 RMK AO2 T01810159
KMNZ 240615Z AUTO 19011KT 10SM BKN016 OVC025 18/16 A3005 RMK AO2 T01830160
KMNZ 240555Z AUTO 19011G16KT 10SM BKN016 OVC023 18/16 A3005 RMK AO2 T01830160 10201 20177 402140137